Station: Legendre Island  

  Atmospheric Gas Attenuation - ITU Rec 676-11   ----------------- dB/100km -----------------
Date Time Temp RH % AH g/m3 Dew Point Wind Direction Speed kph Gust kph Barometer mB Rainfall Since 9am 24GHz 47GHz 76GHz 122GHz 134GHz 241GHz
08/05 09:20 25 44 10.13 12.2 63 69 1018 22.2 25.3 40.3 105.8 103.6 358.2
08/05 09:10 25 44 10.13 11.9 67 74 1017.7 22.2 25.2 40.3 105.8 103.6 358.1
08/05 09:00 24.9 43 9.84 11.5 67 80 1017.8 21.6 24.8 39.3 103.1 100.3 346.4
08/05 08:50 24.9 44 10.07 12.1 69 78 1017.6 22.1 25.2 40.1 105.3 103.0 356.0
08/05 08:40 24.8 40 9.1 10.6 70 83 1017.4 20.1 23.8 36.6 96.1 91.7 316.3
08/05 08:30 24.8 45 10.24 12.1 67 78 1017.5 22.5 25.5 40.8 107.1 105.2 363.6
08/05 08:20 24.8 42 9.56 11.3 70 80 1017.2 21.1 24.4 38.3 100.5 97.0 335.1
08/05 08:10 24.8 44 10.02 11.7 69 76 1017.2 22.0 25.1 39.9 104.9 102.5 354.2
08/05 08:00 24.8 44 10.02 11.7 69 82 1016.8 22.0 25.1 39.9 104.9 102.5 354.1
08/05 07:50 24.5 45 10.07 11.8 69 80 1016.8 22.2 25.3 40.2 105.8 103.5 357.5
08/05 07:40 24.7 42 9.51 10.9 70 80 1016.3 21.0 24.4 38.1 100.0 96.5 333.2
08/05 07:30 24.7 44 9.96 11.6 69 83 1016.5 21.9 25.0 39.7 104.4 101.9 351.9
08/05 07:20 24.6 42 9.45 10.8 76 82 1016.5 20.9 24.3 37.9 99.6 95.9 331.2
08/05 07:10 24.8 48 10.93 13.3 63 69 1016.9 23.9 26.5 43.3 113.9 113.5 392.8
08/05 07:00 24.8 46 10.47 12.4 65 80 1016.7 23.0 25.8 41.6 109.3 107.9 373.1
08/05 06:50 24.8 44 10.02 12 61 69 1016.8 22.0 25.1 39.9 104.9 102.5 354.1
08/05 06:40 24.7 44 9.96 11.6 65 72 1016.8 21.9 25.0 39.7 104.4 101.9 352.0
08/05 06:30 24.9 47 10.76 13.1 67 76 1016.8 23.6 26.2 42.6 112.0 111.3 385.0
08/05 06:20 24.8 42 9.56 11 69 72 1016.3 21.1 24.4 38.2 100.4 97.0 334.8
08/05 06:10 24.9 42 9.61 11.1 67 78 1016.3 21.2 24.5 38.4 100.7 97.4 336.5
08/05 06:00 24.9 45 10.3 12.2 67 76 1016.3 22.6 25.5 40.9 107.4 105.7 365.3
08/05 05:50 25 41 9.44 10.8 67 74 1016 20.8 24.2 37.7 99.0 95.3 329.0
08/05 05:40 25.1 41 9.49 10.9 69 76 1015.9 20.9 24.2 37.8 99.3 95.8 330.6
08/05 05:30 25.1 40 9.26 10.6 67 80 1015.8 20.4 23.9 37.0 97.1 93.1 321.2
08/05 05:20 25.3 43 10.07 11.8 63 72 1016 22.1 25.0 39.8 104.6 102.4 353.8
08/05 05:10 25.3 43 10.07 11.8 65 70 1016.1 22.1 25.0 39.8 104.6 102.4 353.8
08/05 05:00 25.3 42 9.83 11.5 63 74 1015.9 21.6 24.7 38.9 102.3 99.5 343.8
08/05 04:50 25.3 41 9.6 11.4 61 70 1015.9 21.1 24.3 38.1 100.1 96.8 334.3
08/05 04:40 25.4 40 9.42 10.8 63 70 1015.9 20.7 24.0 37.4 98.3 94.6 326.5
08/05 04:30 25.5 42 9.94 11.7 61 72 1015.8 21.8 24.8 39.2 103.1 100.6 347.4
08/05 04:20 25.6 40 9.52 11.3 59 65 1015.7 20.9 24.1 37.7 99.0 95.5 329.7
08/05 04:10 25.7 40 9.58 11.1 63 70 1015.7 21.1 24.2 37.9 99.4 96.1 331.8
08/05 04:00 25.7 40 9.58 11.1 63 74 1015.5 21.1 24.2 37.9 99.4 96.1 331.7
08/05 03:50 25.8 42 10.11 11.9 65 74 1015.4 22.2 24.9 39.7 104.3 102.1 353.1
08/05 03:40 25.9 39 9.44 10.9 65 74 1015.3 20.8 23.9 37.3 97.8 94.2 325.2
08/05 03:30 25.9 40 9.68 11.3 63 76 1015.3 21.3 24.3 38.1 100.1 97.0 334.9
08/05 03:20 26 42 10.23 12.1 57 65 1015.5 22.4 25.0 40.0 105.2 103.3 357.2
08/05 03:10 26 39 9.49 11.3 59 67 1015.5 20.9 24.0 37.4 98.2 94.7 326.9
08/05 03:00 26 40 9.74 11.4 61 74 1015.5 21.4 24.3 38.3 100.5 97.6 337.0
08/05 02:50 26.1 37 9.06 10.6 63 67 1015.4 20.0 23.3 35.9 94.1 89.6 309.2
08/05 02:40 26.2 43 10.59 12.6 56 61 1015.4 23.1 25.5 41.2 108.4 107.3 371.3
08/05 02:30 26.3 44 10.89 13.1 57 72 1015.5 23.8 25.9 42.3 111.2 110.8 383.4
08/05 02:20 26.3 41 10.15 12 57 63 1015.5 22.2 24.8 39.6 104.1 102.0 352.6
08/05 02:10 26.4 38 9.46 10.9 59 67 1015.6 20.8 23.8 37.1 97.4 93.9 324.1
08/05 02:00 26.6 40 10.07 11.9 59 70 1015.5 22.0 24.6 39.2 102.9 100.7 348.0
08/05 01:50 26.6 38 9.57 11.1 63 69 1015.4 21.0 23.9 37.4 98.2 94.9 327.7
08/05 01:40 26.7 39 9.87 11.9 59 65 1015.5 21.6 24.3 38.4 100.9 98.2 339.4
08/05 01:30 26.8 44 11.2 13.5 57 69 1015.9 24.4 26.3 43.2 113.6 113.9 394.2
08/05 01:20 26.9 42 10.75 13.2 52 59 1015.8 23.4 25.6 41.5 109.1 108.3 374.8
08/05 01:10 27 42 10.81 13 46 57 1015.7 23.6 25.6 41.6 109.5 108.9 376.8
08/05 01:00 27 43 11.07 13.4 54 61 1015.7 24.1 26.0 42.6 112.0 112.0 387.7
08/05 00:50 27.1 45 11.65 14.4 50 56 1015.7 25.3 26.8 44.7 117.6 118.9 411.8
08/05 00:40 27.3 40 10.47 12.5 56 59 1015.6 22.8 25.0 40.3 105.8 104.5 361.4
08/05 00:30 27.4 40 10.53 12.6 54 61 1015.7 23.0 25.1 40.4 106.3 105.1 363.4
08/05 00:20 27.5 40 10.58 12.7 57 59 1015.8 23.1 25.1 40.6 106.7 105.5 365.1
08/05 00:10 27.5 41 10.85 13.4 50 59 1016 23.6 25.5 41.5 109.3 108.7 376.3
08/05 00:00 27.6 44 11.71 14.3 48 61 1016 25.4 26.8 44.6 117.5 118.9 411.9
07/05 23:50 27.6 48 12.77 15.6 48 56 1016 27.6 28.4 48.6 128.2 132.0 457.7
07/05 23:40 27.8 42 11.3 14 54 59 1015.8 24.5 26.1 43.0 113.2 113.6 393.5
07/05 23:30 27.8 46 12.37 15.1 50 59 1015.7 26.8 27.7 47.0 123.8 126.7 439.0
07/05 23:20 27.6 52 13.83 17.1 46 50 1015.8 29.8 30.1 52.7 139.1 145.5 504.9
07/05 23:10 27.5 57 15.08 18.2 44 48 1015.9 32.4 32.1 57.8 152.7 162.2 563.1
07/05 23:00 27.5 59 15.61 18.8 39 44 1016 33.6 33.0 60.0 158.6 169.4 588.2
07/05 22:50 27.4 65 17.1 20.4 35 41 1016.1 36.7 35.6 66.5 175.7 190.4 661.4
07/05 22:40 27.5 65 17.2 20.3 35 37 1016.2 36.9 35.8 66.8 176.7 191.6 665.6
07/05 22:30 27.6 63 16.76 19.9 33 39 1016.1 36.0 34.9 64.8 171.4 185.1 643.0
07/05 22:20 27.6 63 16.76 19.9 32 33 1016.2 36.0 35.0 64.8 171.4 185.1 643.0
07/05 22:10 27.8 61 16.41 19.8 35 41 1016.1 35.2 34.3 63.2 166.9 179.7 624.3
07/05 22:00 27.9 60 16.23 19.4 35 41 1016.1 34.8 33.9 62.3 164.7 177.0 614.8
07/05 21:50 28 56 15.23 18.4 37 41 1016 32.7 32.2 58.1 153.4 163.2 566.6
07/05 21:40 27.9 58 15.69 19.1 37 39 1015.9 33.7 33.0 60.1 158.7 169.6 589.0
07/05 21:30 27.8 61 16.41 19.6 33 41 1015.9 35.2 34.3 63.2 166.9 179.7 624.2
07/05 21:20 27.9 58 15.69 19.1 35 39 1015.9 33.7 33.0 60.1 158.7 169.6 589.0
07/05 21:10 27.9 57 15.42 18.6 39 43 1015.6 33.1 32.5 58.9 155.6 165.9 576.1
07/05 21:00 27.8 58 15.6 18.8 37 43 1015.6 33.5 32.9 59.8 157.8 168.6 585.3
07/05 20:50 27.7 60 16.05 19.2 37 41 1015.5 34.5 33.7 61.7 163.0 174.9 607.5
07/05 20:40 27.8 58 15.6 19 37 41 1015.5 33.5 32.9 59.7 157.8 168.5 585.3
07/05 20:30 27.7 61 16.32 19.5 37 44 1015.4 35.0 34.1 62.8 166.0 178.6 620.5
07/05 20:20 27.8 57 15.33 18.5 41 43 1015.3 32.9 32.4 58.6 154.8 164.9 572.5
07/05 20:10 27.6 58 15.43 18.8 41 46 1015.3 33.2 32.7 59.2 156.3 166.6 578.6
07/05 20:00 27.8 56 15.06 18.2 41 46 1015.2 32.4 32.0 57.5 151.8 161.2 559.8
07/05 19:50 27.6 61 16.23 19.4 39 43 1015.1 34.8 34.0 62.5 165.2 177.6 616.8
07/05 19:40 27.6 58 15.43 18.8 43 44 1014.8 33.2 32.6 59.2 156.2 166.6 578.4
07/05 19:30 27.6 57 15.16 18.3 43 50 1014.7 32.6 32.2 58.0 153.3 162.9 565.7
07/05 19:20 27.6 58 15.43 18.6 43 48 1014.6 33.2 32.6 59.1 156.2 166.6 578.3
07/05 19:10 27.5 57 15.08 18.2 43 48 1014.6 32.4 32.1 57.8 152.6 162.0 562.6
07/05 19:00 27.5 59 15.61 18.8 43 50 1014.5 33.6 33.0 60.0 158.4 169.2 587.6
07/05 18:50 27.5 55 14.55 17.9 41 46 1014.3 31.3 31.2 55.6 146.8 154.9 537.8
07/05 18:40 27.3 58 15.18 18.5 46 48 1014.3 32.7 32.3 58.3 154.0 163.8 568.6
07/05 18:30 27.5 55 14.55 17.7 44 54 1014.2 31.3 31.2 55.6 146.8 154.9 537.8
07/05 18:20 27.5 54 14.29 17.6 44 46 1014.2 30.8 30.8 54.6 144.0 151.5 525.8
07/05 18:10 27.4 55 14.47 17.8 41 44 1014.1 31.2 31.1 55.3 146.1 154.1 534.7
07/05 18:00 27.5 55 14.55 17.9 44 52 1013.9 31.3 31.2 55.6 146.7 154.9 537.7
07/05 17:50 27.5 53 14.02 17.3 44 48 1013.9 30.2 30.3 53.5 141.1 147.9 513.4
07/05 17:40 27.6 54 14.37 17.7 43 48 1013.7 31.0 30.8 54.8 144.6 152.3 528.6
07/05 17:30 27.6 57 15.16 18.3 43 50 1013.7 32.6 32.1 58.0 153.1 162.8 565.3
07/05 17:20 27.6 57 15.16 18.3 39 43 1013.7 32.6 32.1 58.0 153.1 162.8 565.3
07/05 17:10 27.6 53 14.1 17.4 39 44 1013.8 30.4 30.4 53.7 141.7 148.8 516.3
07/05 17:00 27.7 49 13.11 16.3 39 48 1013.9 28.3 28.8 49.8 131.2 135.9 471.3
07/05 16:50 27.6 49 13.04 15.9 43 46 1013.9 28.2 28.7 49.6 130.7 135.2 468.8

Last Refresh: 08-May-2026 11:03:47

Bureau of Meteorology